createdAt,value
2022-12-26T00:01:57.575Z,100494.56
2022-12-26T00:04:51.222Z,100505.31
2022-12-26T00:07:38.887Z,100501.84
2022-12-26T00:10:24.489Z,100499.88
2022-12-26T00:13:39.465Z,100502.91
2022-12-26T00:16:18.468Z,100500.78
2022-12-26T00:19:04.492Z,100491.19
2022-12-26T00:21:50.103Z,100505.09
2022-12-26T00:24:35.536Z,100503.63
2022-12-26T00:27:21.299Z,100498.38
2022-12-26T00:30:07.691Z,100495.66
2022-12-26T00:32:53.101Z,100499.88
2022-12-26T00:35:38.807Z,100501.50
2022-12-26T00:38:24.806Z,100488.28
2022-12-26T00:41:11.790Z,100491.66
2022-12-26T00:43:57.729Z,100507.28
2022-12-26T00:46:43.334Z,100504.88
2022-12-26T00:49:29.100Z,100518.88
2022-12-26T00:52:34.433Z,100505.09
2022-12-26T00:55:20.133Z,100522.59
2022-12-26T00:58:05.750Z,100507.97
2022-12-26T01:00:52.035Z,100505.59
2022-12-26T01:03:37.478Z,100504.34
2022-12-26T01:06:23.064Z,100503.44
2022-12-26T01:09:08.419Z,100523.38
2022-12-26T01:11:53.753Z,100514.50
2022-12-26T01:14:39.159Z,100521.47
2022-12-26T01:17:25.782Z,100519.13
2022-12-26T01:20:11.564Z,100506.00
2022-12-26T01:22:57.079Z,100512.84
2022-12-26T01:26:15.411Z,100517.22
2022-12-26T01:28:52.807Z,100517.38
2022-12-26T01:31:38.305Z,100512.94
2022-12-26T01:34:23.993Z,100513.47
2022-12-26T01:37:12.556Z,100512.66
2022-12-26T01:39:57.933Z,100508.53
2022-12-26T01:42:43.409Z,100499.91
2022-12-26T01:45:30.672Z,100512.16
2022-12-26T01:48:22.584Z,100516.19
2022-12-26T01:51:08.556Z,100532.00
2022-12-26T01:54:41.289Z,100532.00
2022-12-26T01:57:06.606Z,100538.13
2022-12-26T01:59:53.808Z,100538.69
2022-12-26T02:02:59.467Z,100542.25
2022-12-26T02:05:45.987Z,100517.16
2022-12-26T02:08:36.923Z,100520.50
2022-12-26T02:11:31.520Z,100540.09
2022-12-26T02:14:17.376Z,100536.97
2022-12-26T02:17:03.053Z,100532.44
2022-12-26T02:20:13.148Z,100535.91
2022-12-26T02:23:11.299Z,100530.97
2022-12-26T02:26:22.242Z,100532.84
2022-12-26T02:29:40.015Z,100536.97
2022-12-26T02:32:56.586Z,100529.91
2022-12-26T02:36:01.344Z,100544.84
2022-12-26T02:39:45.106Z,100543.44
2022-12-26T02:42:39.092Z,100545.53
2022-12-26T02:45:57.210Z,100536.75
2022-12-26T02:48:58.090Z,100548.84
2022-12-26T02:52:34.962Z,100536.22
2022-12-26T02:55:47.359Z,100539.00
2022-12-26T02:59:15.447Z,100529.66
2022-12-26T03:02:22.933Z,100533.63
2022-12-26T03:05:34.711Z,100522.06
2022-12-26T03:08:52.657Z,100521.59
2022-12-26T03:12:01.279Z,100528.38
2022-12-26T03:14:57.527Z,100528.06
2022-12-26T03:18:06.340Z,100525.00
2022-12-26T03:20:52.662Z,100539.91
2022-12-26T03:23:41.091Z,100545.72
2022-12-26T03:26:40.375Z,100541.28
2022-12-26T03:29:44.095Z,100539.06
2022-12-26T03:32:42.527Z,100541.34
2022-12-26T03:35:32.302Z,100541.69
2022-12-26T03:38:23.893Z,100539.63
2022-12-26T03:41:39.360Z,100531.75
2022-12-26T03:45:10.718Z,100542.31
2022-12-26T03:48:37.587Z,100542.59
2022-12-26T03:52:03.315Z,100532.84
2022-12-26T03:55:32.197Z,100545.34
2022-12-26T03:58:46.318Z,100558.28
2022-12-26T04:01:54.354Z,100550.16
2022-12-26T04:05:03.388Z,100562.13
2022-12-26T04:08:18.509Z,100564.03
2022-12-26T04:11:23.870Z,100563.38
2022-12-26T04:14:57.997Z,100575.53
2022-12-26T04:18:23.513Z,100570.38
2022-12-26T04:21:31.849Z,100576.50
2022-12-26T04:24:41.799Z,100580.13
2022-12-26T04:27:48.497Z,100578.16
2022-12-26T04:30:57.273Z,100576.91
2022-12-26T04:34:09.019Z,100576.66
2022-12-26T04:37:19.893Z,100578.41
2022-12-26T04:40:29.407Z,100585.97
2022-12-26T04:43:49.477Z,100582.59
2022-12-26T04:46:39.762Z,100575.59
2022-12-26T04:49:43.356Z,100577.25
2022-12-26T04:52:50.042Z,100563.31
2022-12-26T04:55:36.301Z,100571.59
2022-12-26T04:58:24.178Z,100568.34
2022-12-26T05:01:28.087Z,100577.16
2022-12-26T05:04:34.963Z,100572.66
2022-12-26T05:07:42.643Z,100556.31
2022-12-26T05:10:28.669Z,100574.38
2022-12-26T05:13:14.266Z,100572.19
2022-12-26T05:16:18.735Z,100562.97
2022-12-26T05:19:23.573Z,100565.84
2022-12-26T05:22:28.823Z,100572.38
2022-12-26T05:25:40.253Z,100568.13
2022-12-26T05:28:41.482Z,100556.56
2022-12-26T05:31:32.913Z,100585.25
2022-12-26T05:34:21.421Z,100585.97
2022-12-26T05:37:07.058Z,100586.16
2022-12-26T05:39:52.738Z,100568.63
2022-12-26T05:42:38.489Z,100569.41
2022-12-26T05:45:23.943Z,100562.69
2022-12-26T05:48:09.177Z,100567.38
2022-12-26T05:51:02.195Z,100565.69
2022-12-26T05:53:48.507Z,100556.06
2022-12-26T05:56:34.255Z,100555.38
2022-12-26T05:59:19.574Z,100570.09
2022-12-26T06:02:05.392Z,100538.31
2022-12-26T06:04:51.221Z,100564.06
2022-12-26T06:07:36.674Z,100564.63
2022-12-26T06:10:22.220Z,100560.69
2022-12-26T06:13:07.647Z,100556.38
2022-12-26T06:15:53.341Z,100576.88
2022-12-26T06:18:39.448Z,100586.56
2022-12-26T06:21:25.362Z,100586.34
2022-12-26T06:24:10.738Z,100599.91
2022-12-26T06:26:56.235Z,100589.34
2022-12-26T06:29:41.787Z,100586.22
2022-12-26T06:32:27.336Z,100591.09
2022-12-26T06:35:12.908Z,100588.34
2022-12-26T06:37:58.403Z,100593.88
2022-12-26T06:40:44.022Z,100605.31
2022-12-26T06:43:29.576Z,100613.59
2022-12-26T06:46:20.792Z,100617.50
2022-12-26T06:49:08.677Z,100607.22
2022-12-26T06:51:54.072Z,100618.63
2022-12-26T06:54:39.578Z,100609.59
2022-12-26T06:57:25.202Z,100622.03
2022-12-26T07:00:11.529Z,100634.25
2022-12-26T07:02:57.061Z,100651.66
2022-12-26T07:05:42.617Z,100641.97
2022-12-26T07:08:28.132Z,100651.59
2022-12-26T07:11:20.464Z,100644.13
2022-12-26T07:14:06.556Z,100640.19
2022-12-26T07:16:52.309Z,100662.19
2022-12-26T07:19:37.781Z,100648.19
2022-12-26T07:22:23.154Z,100655.50
2022-12-26T07:25:09.014Z,100637.91
2022-12-26T07:27:54.428Z,100648.81
2022-12-26T07:30:40.270Z,100660.34
2022-12-26T07:33:26.614Z,100644.47
2022-12-26T07:36:12.341Z,100651.00
2022-12-26T07:38:57.681Z,100669.41
2022-12-26T07:41:58.151Z,100656.44
2022-12-26T07:44:43.608Z,100628.97
2022-12-26T07:47:28.947Z,100647.44
2022-12-26T07:50:14.548Z,100649.38
2022-12-26T07:53:00.766Z,100648.47
2022-12-26T07:55:46.201Z,100642.03
2022-12-26T07:58:31.856Z,100618.56
2022-12-26T08:01:17.922Z,100624.66
2022-12-26T08:04:03.516Z,100619.69
2022-12-26T08:06:49.384Z,100624.75
2022-12-26T08:09:35.081Z,100630.41
2022-12-26T08:12:21.659Z,100623.72
2022-12-26T08:15:07.859Z,100614.41
2022-12-26T08:17:53.215Z,100629.63
2022-12-26T08:20:38.600Z,100636.28
2022-12-26T08:23:23.948Z,100640.94
2022-12-26T08:26:12.794Z,100645.91
2022-12-26T08:28:58.231Z,100607.22
2022-12-26T08:31:43.659Z,100640.19
2022-12-26T08:34:33.947Z,100646.47
2022-12-26T08:37:19.416Z,100641.47
2022-12-26T08:40:05.253Z,100651.09
2022-12-26T08:43:12.341Z,100656.41
2022-12-26T08:46:04.695Z,100655.63
2022-12-26T08:48:51.883Z,100670.84
2022-12-26T08:51:37.411Z,100680.38
2022-12-26T08:54:22.823Z,100670.50
2022-12-26T08:57:08.792Z,100672.50
2022-12-26T08:59:54.290Z,100687.16
2022-12-26T09:02:39.985Z,100693.88
2022-12-26T09:05:25.545Z,100688.56
2022-12-26T09:08:11.408Z,100688.84
2022-12-26T09:11:02.105Z,100703.09
2022-12-26T09:13:48.045Z,100702.16
2022-12-26T09:16:49.310Z,100705.34
2022-12-26T09:19:35.531Z,100703.00
2022-12-26T09:22:39.554Z,100700.81
2022-12-26T09:25:26.217Z,100725.53
2022-12-26T09:28:11.800Z,100712.28
2022-12-26T09:31:00.525Z,100707.25
2022-12-26T09:33:47.478Z,100706.28
2022-12-26T09:36:37.932Z,100718.97
2022-12-26T09:39:23.254Z,100719.00
2022-12-26T09:42:19.452Z,100734.03
2022-12-26T09:45:18.710Z,100739.81
2022-12-26T09:48:21.635Z,100748.81
2022-12-26T09:51:09.918Z,100735.22
2022-12-26T09:53:56.331Z,100735.09
2022-12-26T10:00:01.087Z,100720.53
2022-12-26T10:02:54.742Z,100725.84
2022-12-26T10:06:07.677Z,100712.75
2022-12-26T10:09:19.413Z,100709.94
2022-12-26T10:12:13.572Z,100713.41
2022-12-26T10:15:12.964Z,100705.66
2022-12-26T10:18:16.873Z,100705.88
2022-12-26T10:21:29.439Z,100695.75
2022-12-26T10:24:18.287Z,100692.50
2022-12-26T10:27:10.831Z,100697.38
2022-12-26T10:30:04.594Z,100688.72
2022-12-26T10:32:59.030Z,100688.66
2022-12-26T10:35:46.172Z,100695.41
2022-12-26T10:38:42.115Z,100684.78
2022-12-26T10:41:35.494Z,100683.31
2022-12-26T10:44:27.405Z,100692.44
2022-12-26T10:47:24.992Z,100670.69
2022-12-26T10:50:27.348Z,100680.03
2022-12-26T10:53:14.701Z,100676.56
2022-12-26T10:56:01.618Z,100682.22
2022-12-26T10:58:58.461Z,100668.56
2022-12-26T11:01:47.537Z,100689.16
2022-12-26T11:07:48.477Z,100677.03
2022-12-26T11:10:34.034Z,100684.91
2022-12-26T11:13:21.893Z,100682.16
2022-12-26T11:16:08.394Z,100676.28
2022-12-26T11:18:54.467Z,100677.41
2022-12-26T11:21:40.180Z,100660.66
2022-12-26T11:24:25.764Z,100653.69
2022-12-26T11:27:23.358Z,100655.25
2022-12-26T11:30:14.325Z,100653.03
2022-12-26T11:33:13.877Z,100656.50
2022-12-26T11:36:11.339Z,100654.06
2022-12-26T11:39:06.052Z,100646.38
2022-12-26T11:41:52.599Z,100649.88
2022-12-26T11:44:42.039Z,100657.91
2022-12-26T11:47:29.316Z,100652.75
2022-12-26T11:50:22.970Z,100640.25
2022-12-26T11:53:16.693Z,100658.06
2022-12-26T11:56:05.762Z,100643.56
2022-12-26T11:59:15.987Z,100638.84
2022-12-26T12:02:21.191Z,100640.56
2022-12-26T12:05:15.782Z,100632.47
2022-12-26T12:08:15.544Z,100624.38
2022-12-26T12:11:26.958Z,100629.06
2022-12-26T12:14:55.157Z,100632.94
2022-12-26T12:18:04.220Z,100622.34
2022-12-26T12:21:19.836Z,100625.91
2022-12-26T12:24:17.566Z,100615.34
2022-12-26T12:27:29.376Z,100628.06
2022-12-26T12:30:16.948Z,100609.94
2022-12-26T12:33:29.797Z,100612.19
2022-12-26T12:36:24.648Z,100610.63
2022-12-26T12:39:20.650Z,100600.44
2022-12-26T12:42:24.537Z,100612.03
2022-12-26T12:45:27.066Z,100603.56
2022-12-26T12:48:45.472Z,100599.66
2022-12-26T12:51:46.039Z,100599.31
2022-12-26T12:54:46.603Z,100589.50
2022-12-26T12:57:31.811Z,100587.69
2022-12-26T13:00:23.551Z,100576.47
2022-12-26T13:03:20.045Z,100568.53
2022-12-26T13:06:11.428Z,100582.03
2022-12-26T13:09:28.111Z,100580.00
2022-12-26T13:12:24.368Z,100578.03
2022-12-26T13:15:23.463Z,100573.22
2022-12-26T13:18:20.414Z,100597.69
2022-12-26T13:21:10.536Z,100595.72
2022-12-26T13:24:25.836Z,100595.22
2022-12-26T13:27:19.610Z,100606.94
2022-12-26T13:30:17.128Z,100608.16
2022-12-26T13:33:03.906Z,100600.53
2022-12-26T13:36:01.106Z,100611.38
2022-12-26T13:39:13.145Z,100623.38
2022-12-26T13:42:34.014Z,100614.09
2022-12-26T13:45:38.054Z,100617.56
2022-12-26T13:48:26.167Z,100623.13
2022-12-26T13:51:42.616Z,100619.78
2022-12-26T13:54:28.816Z,100620.50
2022-12-26T13:57:40.110Z,100605.50
2022-12-26T14:00:44.811Z,100616.88
2022-12-26T14:04:09.065Z,100614.16
2022-12-26T14:07:13.195Z,100625.00
2022-12-26T14:10:13.260Z,100634.47
2022-12-26T14:13:04.628Z,100621.19
2022-12-26T14:16:15.890Z,100633.53
2022-12-26T14:19:19.907Z,100660.75
2022-12-26T14:22:18.169Z,100638.81
2022-12-26T14:25:27.780Z,100658.50
2022-12-26T14:28:37.611Z,100657.41
2022-12-26T14:31:56.488Z,100666.94
2022-12-26T14:35:04.595Z,100682.00
2022-12-26T14:38:10.843Z,100696.19
2022-12-26T14:41:07.419Z,100706.47
2022-12-26T14:43:57.841Z,100709.38
2022-12-26T14:46:43.544Z,100730.75
2022-12-26T14:49:35.445Z,100735.28
2022-12-26T14:52:33.488Z,100723.00
2022-12-26T14:55:51.195Z,100742.13
2022-12-26T14:58:42.422Z,100747.44
2022-12-26T15:01:27.865Z,100754.72
2022-12-26T15:04:28.128Z,100743.88
2022-12-26T15:07:36.839Z,100760.00
2022-12-26T15:10:34.110Z,100773.81
2022-12-26T15:13:47.156Z,100783.63
2022-12-26T15:17:07.711Z,100778.19
2022-12-26T15:20:15.116Z,100798.91
2022-12-26T15:23:37.958Z,100804.53
2022-12-26T15:26:58.258Z,100812.16
2022-12-26T15:30:17.412Z,100820.53
2022-12-26T15:33:12.768Z,100830.63
2022-12-26T15:36:36.435Z,100837.44
2022-12-26T15:39:45.882Z,100851.19
2022-12-26T15:42:55.672Z,100864.69
2022-12-26T15:45:59.062Z,100861.41
2022-12-26T15:48:59.367Z,100871.44
2022-12-26T15:51:55.890Z,100870.72
2022-12-26T15:55:12.814Z,100877.72
2022-12-26T15:58:43.932Z,100877.66
2022-12-26T16:01:46.137Z,100880.97
2022-12-26T16:04:37.396Z,100875.50
2022-12-26T16:08:08.193Z,100885.59
2022-12-26T16:11:14.192Z,100888.09
2022-12-26T16:14:02.971Z,100896.94
2022-12-26T16:16:48.807Z,100913.19
2022-12-26T16:19:34.346Z,100923.84
2022-12-26T16:22:46.404Z,100932.44
2022-12-26T16:25:31.940Z,100924.44
2022-12-26T16:28:24.160Z,100922.56
2022-12-26T16:31:17.093Z,100942.81
2022-12-26T16:34:02.615Z,100936.91
2022-12-26T16:36:50.940Z,100948.31
2022-12-26T16:39:36.620Z,100939.19
2022-12-26T16:42:30.851Z,100958.91
2022-12-26T16:45:19.326Z,100954.63
2022-12-26T16:48:07.458Z,100962.31
2022-12-26T16:51:01.000Z,100968.53
2022-12-26T16:53:46.886Z,100958.59
2022-12-26T16:56:34.339Z,100957.03
2022-12-26T16:59:23.577Z,100969.31
2022-12-26T17:02:17.860Z,100961.81
2022-12-26T17:05:08.173Z,100963.00
2022-12-26T17:07:55.876Z,100976.19
2022-12-26T17:10:47.848Z,100981.38
2022-12-26T17:13:33.379Z,100977.19
2022-12-26T17:16:23.335Z,100978.03
2022-12-26T17:19:19.637Z,100989.13
2022-12-26T17:22:13.940Z,100991.72
2022-12-26T17:25:33.868Z,100995.28
2022-12-26T17:28:19.933Z,101004.78
2022-12-26T17:31:17.025Z,101012.66
2022-12-26T17:34:08.462Z,101018.88
2022-12-26T17:37:18.654Z,101019.78
2022-12-26T17:40:14.309Z,101032.00
2022-12-26T17:43:12.085Z,101026.75
2022-12-26T17:45:58.112Z,101010.69
2022-12-26T17:48:44.706Z,101023.47
2022-12-26T17:51:30.355Z,101027.97
2022-12-26T17:54:17.061Z,101031.47
2022-12-26T17:57:02.259Z,101016.88
2022-12-26T17:59:49.095Z,101013.00
2022-12-26T18:02:35.049Z,101031.81
2022-12-26T18:05:21.858Z,101014.22
2022-12-26T18:08:33.731Z,101008.38
2022-12-26T18:11:19.408Z,101018.38
2022-12-26T18:14:06.169Z,101018.50
2022-12-26T18:16:52.225Z,101022.94
2022-12-26T18:19:37.567Z,101016.09
2022-12-26T18:22:23.149Z,101040.19
2022-12-26T18:25:12.158Z,101049.13
2022-12-26T18:27:58.780Z,101050.91
2022-12-26T18:30:45.085Z,101065.44
2022-12-26T18:33:30.587Z,101067.88
2022-12-26T18:36:17.376Z,101077.31
2022-12-26T18:39:04.154Z,101074.53
2022-12-26T18:41:49.774Z,101079.06
2022-12-26T18:44:35.310Z,101081.56
2022-12-26T18:47:22.009Z,101083.16
2022-12-26T18:50:12.507Z,101081.50
2022-12-26T18:52:58.188Z,101104.84
2022-12-26T18:55:43.869Z,101089.44
2022-12-26T18:58:29.138Z,101091.19
2022-12-26T19:01:16.367Z,101116.38
2022-12-26T19:04:01.893Z,101113.22
2022-12-26T19:06:47.318Z,101104.19
2022-12-26T19:09:33.148Z,101104.47
2022-12-26T19:12:19.557Z,101118.28
2022-12-26T19:15:05.467Z,101126.97
2022-12-26T19:17:50.833Z,101130.31
2022-12-26T19:20:42.159Z,101127.97
2022-12-26T19:23:29.796Z,101135.03
2022-12-26T19:26:17.470Z,101147.75
2022-12-26T19:29:02.739Z,101146.59
2022-12-26T19:31:48.410Z,101133.13
2022-12-26T19:34:33.936Z,101135.09
2022-12-26T19:37:19.364Z,101136.81
2022-12-26T19:40:05.572Z,101142.03
2022-12-26T19:42:50.935Z,101153.44
2022-12-26T19:45:36.742Z,101157.94
2022-12-26T19:48:22.133Z,101171.13
2022-12-26T19:51:12.841Z,101154.63
2022-12-26T19:53:58.540Z,101160.84
2022-12-26T19:56:44.224Z,101173.81
2022-12-26T19:59:29.515Z,101167.09
2022-12-26T20:02:15.227Z,101158.53
2022-12-26T20:05:00.945Z,101156.03
2022-12-26T20:07:46.775Z,101169.72
2022-12-26T20:10:33.637Z,101170.69
2022-12-26T20:13:18.909Z,101174.91
2022-12-26T20:16:06.714Z,101185.16
2022-12-26T20:18:52.199Z,101182.75
2022-12-26T20:21:38.496Z,101187.03
2022-12-26T20:24:24.754Z,101193.97
2022-12-26T20:27:10.421Z,101178.63
2022-12-26T20:29:55.879Z,101182.84
2022-12-26T20:32:46.454Z,101184.50
2022-12-26T20:35:32.317Z,101186.44
2022-12-26T20:38:17.707Z,101205.41
2022-12-26T20:41:04.920Z,101199.38
2022-12-26T20:43:50.841Z,101196.66
2022-12-26T20:46:36.270Z,101170.06
2022-12-26T20:49:21.676Z,101206.22
2022-12-26T20:52:07.016Z,101217.53
2022-12-26T20:54:52.834Z,101220.13
2022-12-26T20:57:38.023Z,101219.44
2022-12-26T21:00:23.705Z,101218.44
2022-12-26T21:03:09.286Z,101232.44
2022-12-26T21:05:55.104Z,101215.91
2022-12-26T21:08:46.598Z,101232.31
2022-12-26T21:11:34.916Z,101233.25
2022-12-26T21:14:22.071Z,101236.69
2022-12-26T21:17:07.476Z,101232.44
2022-12-26T21:19:53.106Z,101237.78
2022-12-26T21:22:38.789Z,101250.78
2022-12-26T21:25:24.034Z,101260.38
2022-12-26T21:28:09.748Z,101267.22
2022-12-26T21:30:55.467Z,101274.06
2022-12-26T21:33:44.661Z,101268.97
2022-12-26T21:36:30.827Z,101281.28
2022-12-26T21:39:16.458Z,101277.78
2022-12-26T21:42:03.291Z,101263.25
2022-12-26T21:44:49.013Z,101285.53
2022-12-26T21:47:34.349Z,101281.19
2022-12-26T21:50:19.833Z,101297.50
2022-12-26T21:53:05.055Z,101300.28
2022-12-26T21:55:50.610Z,101299.50
2022-12-26T21:58:55.684Z,101301.19
2022-12-26T22:01:41.306Z,101312.47
2022-12-26T22:04:26.922Z,101311.56
2022-12-26T22:07:12.259Z,101312.47
2022-12-26T22:09:57.880Z,101319.28
2022-12-26T22:12:58.166Z,101297.75
2022-12-26T22:16:03.821Z,101322.00
2022-12-26T22:18:49.445Z,101311.63
2022-12-26T22:21:35.620Z,101329.75
2022-12-26T22:24:21.985Z,101334.00
2022-12-26T22:27:07.586Z,101321.91
2022-12-26T22:29:52.955Z,101316.88
2022-12-26T22:32:38.493Z,101331.59
2022-12-26T22:35:23.799Z,101328.09
2022-12-26T22:38:09.552Z,101326.34
2022-12-26T22:40:57.207Z,101338.50
2022-12-26T22:43:45.358Z,101339.44
2022-12-26T22:46:31.090Z,101328.16
2022-12-26T22:49:16.644Z,101335.84
2022-12-26T22:52:02.017Z,101332.44
2022-12-26T22:54:47.353Z,101334.03
2022-12-26T22:57:32.739Z,101329.91
2022-12-26T23:00:18.332Z,101337.63
2022-12-26T23:03:04.058Z,101331.59
2022-12-26T23:05:50.373Z,101329.91
2022-12-26T23:08:35.922Z,101326.44
2022-12-26T23:11:25.291Z,101349.66
2022-12-26T23:14:14.431Z,101317.72
2022-12-26T23:17:04.263Z,101343.66
2022-12-26T23:20:10.378Z,101336.03
2022-12-26T23:22:56.016Z,101344.59
2022-12-26T23:25:41.540Z,101348.94
2022-12-26T23:28:45.677Z,101350.69
2022-12-26T23:31:31.268Z,101360.22
2022-12-26T23:34:17.485Z,101366.16
2022-12-26T23:37:03.450Z,101365.34
2022-12-26T23:39:48.672Z,101370.53
2022-12-26T23:42:34.065Z,101367.06
2022-12-26T23:45:19.414Z,101369.75
2022-12-26T23:48:05.029Z,101367.97
2022-12-26T23:50:50.502Z,101371.56
2022-12-26T23:53:36.109Z,101378.38
2022-12-26T23:56:21.482Z,101382.72
2022-12-26T23:59:06.824Z,101373.25
